sensor_id;sensor_type;location;lat;lon;timestamp;temperature;humidity
79467;SHT30;68933;49.726;9.226;2024-01-30T00:00:05;2;79
79467;SHT30;68933;49.726;9.226;2024-01-30T00:02:18;2;79
79467;SHT30;68933;49.726;9.226;2024-01-30T00:04:31;2;79
79467;SHT30;68933;49.726;9.226;2024-01-30T00:06:44;2;79
79467;SHT30;68933;49.726;9.226;2024-01-30T00:08:57;2;79
79467;SHT30;68933;49.726;9.226;2024-01-30T00:11:10;1.9;79
79467;SHT30;68933;49.726;9.226;2024-01-30T00:13:23;1.9;79
79467;SHT30;68933;49.726;9.226;2024-01-30T00:15:36;1.9;79
79467;SHT30;68933;49.726;9.226;2024-01-30T00:17:49;1.9;79
79467;SHT30;68933;49.726;9.226;2024-01-30T00:20:02;1.9;79
79467;SHT30;68933;49.726;9.226;2024-01-30T00:22:15;1.9;79
79467;SHT30;68933;49.726;9.226;2024-01-30T00:24:28;1.9;79
79467;SHT30;68933;49.726;9.226;2024-01-30T00:27:43;1.9;79
79467;SHT30;68933;49.726;9.226;2024-01-30T00:29:55;1.9;79
79467;SHT30;68933;49.726;9.226;2024-01-30T00:32:08;1.8;79
79467;SHT30;68933;49.726;9.226;2024-01-30T00:34:21;1.8;79
79467;SHT30;68933;49.726;9.226;2024-01-30T00:36:34;1.8;79
79467;SHT30;68933;49.726;9.226;2024-01-30T00:38:47;1.8;79
79467;SHT30;68933;49.726;9.226;2024-01-30T00:41:00;1.8;79
79467;SHT30;68933;49.726;9.226;2024-01-30T00:43:13;1.8;79
79467;SHT30;68933;49.726;9.226;2024-01-30T00:45:26;1.8;79
79467;SHT30;68933;49.726;9.226;2024-01-30T00:47:39;1.8;79
79467;SHT30;68933;49.726;9.226;2024-01-30T00:49:52;1.8;79
79467;SHT30;68933;49.726;9.226;2024-01-30T00:52:05;1.8;79
79467;SHT30;68933;49.726;9.226;2024-01-30T00:54:18;1.8;79
79467;SHT30;68933;49.726;9.226;2024-01-30T00:56:31;1.8;79
79467;SHT30;68933;49.726;9.226;2024-01-30T00:58:44;1.8;79
79467;SHT30;68933;49.726;9.226;2024-01-30T01:00:57;1.7;79
79467;SHT30;68933;49.726;9.226;2024-01-30T01:03:10;1.7;79
79467;SHT30;68933;49.726;9.226;2024-01-30T01:05:23;1.7;79
79467;SHT30;68933;49.726;9.226;2024-01-30T01:07:36;1.7;79
79467;SHT30;68933;49.726;9.226;2024-01-30T01:09:49;1.7;79
79467;SHT30;68933;49.726;9.226;2024-01-30T01:12:02;1.7;79
79467;SHT30;68933;49.726;9.226;2024-01-30T01:14:15;1.7;79
79467;SHT30;68933;49.726;9.226;2024-01-30T01:16:28;1.7;79
79467;SHT30;68933;49.726;9.226;2024-01-30T01:18:41;1.7;79
79467;SHT30;68933;49.726;9.226;2024-01-30T01:20:54;1.7;79
79467;SHT30;68933;49.726;9.226;2024-01-30T01:23:07;1.7;79
79467;SHT30;68933;49.726;9.226;2024-01-30T01:25:20;1.7;79
79467;SHT30;68933;49.726;9.226;2024-01-30T01:27:33;1.7;79
79467;SHT30;68933;49.726;9.226;2024-01-30T01:29:46;1.7;79
79467;SHT30;68933;49.726;9.226;2024-01-30T01:31:59;1.7;79
79467;SHT30;68933;49.726;9.226;2024-01-30T01:34:12;1.7;79
79467;SHT30;68933;49.726;9.226;2024-01-30T01:36:25;1.7;79
79467;SHT30;68933;49.726;9.226;2024-01-30T01:38:38;1.7;79
79467;SHT30;68933;49.726;9.226;2024-01-30T01:40:51;1.7;79
79467;SHT30;68933;49.726;9.226;2024-01-30T01:43:05;1.6;80
79467;SHT30;68933;49.726;9.226;2024-01-30T01:45:17;1.6;80
79467;SHT30;68933;49.726;9.226;2024-01-30T01:47:30;1.6;80
79467;SHT30;68933;49.726;9.226;2024-01-30T01:49:43;1.6;80
79467;SHT30;68933;49.726;9.226;2024-01-30T01:51:56;1.6;80
79467;SHT30;68933;49.726;9.226;2024-01-30T01:54:09;1.6;80
79467;SHT30;68933;49.726;9.226;2024-01-30T01:56:22;1.6;79
79467;SHT30;68933;49.726;9.226;2024-01-30T01:58:35;1.6;79
79467;SHT30;68933;49.726;9.226;2024-01-30T02:00:48;1.6;79
79467;SHT30;68933;49.726;9.226;2024-01-30T02:03:01;1.6;80
79467;SHT30;68933;49.726;9.226;2024-01-30T02:05:14;1.6;80
79467;SHT30;68933;49.726;9.226;2024-01-30T02:07:27;1.6;80
79467;SHT30;68933;49.726;9.226;2024-01-30T02:09:40;1.6;80
79467;SHT30;68933;49.726;9.226;2024-01-30T02:11:53;1.6;79
79467;SHT30;68933;49.726;9.226;2024-01-30T02:14:06;1.6;79
79467;SHT30;68933;49.726;9.226;2024-01-30T02:16:19;1.6;79
79467;SHT30;68933;49.726;9.226;2024-01-30T02:18:32;1.7;79
79467;SHT30;68933;49.726;9.226;2024-01-30T02:20:45;1.7;79
79467;SHT30;68933;49.726;9.226;2024-01-30T02:22:58;1.6;79
79467;SHT30;68933;49.726;9.226;2024-01-30T02:25:11;1.6;79
79467;SHT30;68933;49.726;9.226;2024-01-30T02:27:24;1.6;79
79467;SHT30;68933;49.726;9.226;2024-01-30T02:29:37;1.6;79
79467;SHT30;68933;49.726;9.226;2024-01-30T02:31:50;1.6;79
79467;SHT30;68933;49.726;9.226;2024-01-30T02:34:04;1.6;79
79467;SHT30;68933;49.726;9.226;2024-01-30T02:36:16;1.6;79
79467;SHT30;68933;49.726;9.226;2024-01-30T02:38:29;1.5;79
79467;SHT30;68933;49.726;9.226;2024-01-30T02:40:42;1.5;79
79467;SHT30;68933;49.726;9.226;2024-01-30T02:42:55;1.5;79
79467;SHT30;68933;49.726;9.226;2024-01-30T02:45:09;1.5;79
79467;SHT30;68933;49.726;9.226;2024-01-30T02:47:21;1.5;79
79467;SHT30;68933;49.726;9.226;2024-01-30T02:49:34;1.4;79
79467;SHT30;68933;49.726;9.226;2024-01-30T02:51:47;1.4;79
79467;SHT30;68933;49.726;9.226;2024-01-30T02:54:00;1.4;79
79467;SHT30;68933;49.726;9.226;2024-01-30T02:56:13;1.4;79
79467;SHT30;68933;49.726;9.226;2024-01-30T02:58:26;1.4;79
79467;SHT30;68933;49.726;9.226;2024-01-30T03:00:39;1.4;79
79467;SHT30;68933;49.726;9.226;2024-01-30T03:02:52;1.4;79
79467;SHT30;68933;49.726;9.226;2024-01-30T03:05:05;1.4;79
79467;SHT30;68933;49.726;9.226;2024-01-30T03:07:18;1.4;79
79467;SHT30;68933;49.726;9.226;2024-01-30T03:09:31;1.3;79
79467;SHT30;68933;49.726;9.226;2024-01-30T03:11:44;1.3;79
79467;SHT30;68933;49.726;9.226;2024-01-30T03:13:57;1.3;80
79467;SHT30;68933;49.726;9.226;2024-01-30T03:16:10;1.3;80
79467;SHT30;68933;49.726;9.226;2024-01-30T03:18:23;1.3;80
79467;SHT30;68933;49.726;9.226;2024-01-30T03:20:36;1.3;80
79467;SHT30;68933;49.726;9.226;2024-01-30T03:22:49;1.3;80
79467;SHT30;68933;49.726;9.226;2024-01-30T03:25:02;1.3;80
79467;SHT30;68933;49.726;9.226;2024-01-30T03:27:15;1.3;80
79467;SHT30;68933;49.726;9.226;2024-01-30T03:29:28;1.3;80
79467;SHT30;68933;49.726;9.226;2024-01-30T03:31:41;1.3;80
79467;SHT30;68933;49.726;9.226;2024-01-30T03:33:54;1.3;79
79467;SHT30;68933;49.726;9.226;2024-01-30T03:36:07;1.3;79
79467;SHT30;68933;49.726;9.226;2024-01-30T03:38:20;1.3;79
79467;SHT30;68933;49.726;9.226;2024-01-30T03:40:33;1.3;79
79467;SHT30;68933;49.726;9.226;2024-01-30T03:42:46;1.3;79
79467;SHT30;68933;49.726;9.226;2024-01-30T03:44:59;1.3;79
79467;SHT30;68933;49.726;9.226;2024-01-30T03:47:12;1.3;79
79467;SHT30;68933;49.726;9.226;2024-01-30T03:49:25;1.2;80
79467;SHT30;68933;49.726;9.226;2024-01-30T03:51:38;1.2;80
79467;SHT30;68933;49.726;9.226;2024-01-30T03:53:51;1.2;80
79467;SHT30;68933;49.726;9.226;2024-01-30T03:56:04;1.2;80
79467;SHT30;68933;49.726;9.226;2024-01-30T03:58:17;1.2;80
79467;SHT30;68933;49.726;9.226;2024-01-30T04:00:30;1.2;80
79467;SHT30;68933;49.726;9.226;2024-01-30T04:02:43;1.2;80
79467;SHT30;68933;49.726;9.226;2024-01-30T04:04:56;1.2;80
79467;SHT30;68933;49.726;9.226;2024-01-30T04:07:09;1.2;80
79467;SHT30;68933;49.726;9.226;2024-01-30T04:09:22;1.2;80
79467;SHT30;68933;49.726;9.226;2024-01-30T04:11:35;1.2;80
79467;SHT30;68933;49.726;9.226;2024-01-30T04:13:48;1.2;80
79467;SHT30;68933;49.726;9.226;2024-01-30T04:16:01;1.2;80
79467;SHT30;68933;49.726;9.226;2024-01-30T04:18:14;1.2;80
79467;SHT30;68933;49.726;9.226;2024-01-30T04:20:27;1.2;80
79467;SHT30;68933;49.726;9.226;2024-01-30T04:22:40;1.2;80
79467;SHT30;68933;49.726;9.226;2024-01-30T04:24:53;1.2;79
79467;SHT30;68933;49.726;9.226;2024-01-30T04:27:06;1.2;79
79467;SHT30;68933;49.726;9.226;2024-01-30T04:29:19;1.2;79
79467;SHT30;68933;49.726;9.226;2024-01-30T04:31:32;1.2;79
79467;SHT30;68933;49.726;9.226;2024-01-30T04:33:45;1.2;79
79467;SHT30;68933;49.726;9.226;2024-01-30T04:35:58;1.2;79
79467;SHT30;68933;49.726;9.226;2024-01-30T04:38:11;1.2;79
79467;SHT30;68933;49.726;9.226;2024-01-30T04:40:24;1.2;77
79467;SHT30;68933;49.726;9.226;2024-01-30T04:42:37;1.2;77
79467;SHT30;68933;49.726;9.226;2024-01-30T04:44:50;1.2;77
79467;SHT30;68933;49.726;9.226;2024-01-30T04:47:03;1.2;77
79467;SHT30;68933;49.726;9.226;2024-01-30T04:49:16;1.2;77
79467;SHT30;68933;49.726;9.226;2024-01-30T04:51:29;1.2;77
79467;SHT30;68933;49.726;9.226;2024-01-30T04:53:42;1.2;77
79467;SHT30;68933;49.726;9.226;2024-01-30T04:55:55;1.1;79
79467;SHT30;68933;49.726;9.226;2024-01-30T04:58:08;1.1;79
79467;SHT30;68933;49.726;9.226;2024-01-30T05:00:21;1.1;79
79467;SHT30;68933;49.726;9.226;2024-01-30T05:02:34;1.1;79
79467;SHT30;68933;49.726;9.226;2024-01-30T05:04:47;1.1;79
79467;SHT30;68933;49.726;9.226;2024-01-30T05:07:00;1.1;77
79467;SHT30;68933;49.726;9.226;2024-01-30T05:09:13;1.1;77
79467;SHT30;68933;49.726;9.226;2024-01-30T05:11:26;1;77
79467;SHT30;68933;49.726;9.226;2024-01-30T05:13:39;1;77
79467;SHT30;68933;49.726;9.226;2024-01-30T05:15:52;1;77
79467;SHT30;68933;49.726;9.226;2024-01-30T05:18:05;1;79
79467;SHT30;68933;49.726;9.226;2024-01-30T05:20:19;1;79
79467;SHT30;68933;49.726;9.226;2024-01-30T05:22:31;1;79
79467;SHT30;68933;49.726;9.226;2024-01-30T05:24:44;1;79
79467;SHT30;68933;49.726;9.226;2024-01-30T05:26:57;1.1;79
79467;SHT30;68933;49.726;9.226;2024-01-30T05:29:10;1.1;79
79467;SHT30;68933;49.726;9.226;2024-01-30T05:31:23;1.1;79
79467;SHT30;68933;49.726;9.226;2024-01-30T05:33:36;1.1;79
79467;SHT30;68933;49.726;9.226;2024-01-30T05:35:49;1.1;79
79467;SHT30;68933;49.726;9.226;2024-01-30T05:38:02;1;77
79467;SHT30;68933;49.726;9.226;2024-01-30T05:40:15;1;77
79467;SHT30;68933;49.726;9.226;2024-01-30T05:42:28;1;77
79467;SHT30;68933;49.726;9.226;2024-01-30T05:44:41;1;77
79467;SHT30;68933;49.726;9.226;2024-01-30T05:46:54;1;77
79467;SHT30;68933;49.726;9.226;2024-01-30T05:49:07;1;77
79467;SHT30;68933;49.726;9.226;2024-01-30T05:51:20;1;77
79467;SHT30;68933;49.726;9.226;2024-01-30T05:53:33;1;79
79467;SHT30;68933;49.726;9.226;2024-01-30T05:55:46;1;79
79467;SHT30;68933;49.726;9.226;2024-01-30T05:57:59;1;79
79467;SHT30;68933;49.726;9.226;2024-01-30T06:00:12;1;79
79467;SHT30;68933;49.726;9.226;2024-01-30T06:02:25;1;77
79467;SHT30;68933;49.726;9.226;2024-01-30T06:04:38;1;77
79467;SHT30;68933;49.726;9.226;2024-01-30T06:06:51;1;77
79467;SHT30;68933;49.726;9.226;2024-01-30T06:09:04;1;79
79467;SHT30;68933;49.726;9.226;2024-01-30T06:11:17;1;79
79467;SHT30;68933;49.726;9.226;2024-01-30T06:13:30;1;79
79467;SHT30;68933;49.726;9.226;2024-01-30T06:15:43;1;79
79467;SHT30;68933;49.726;9.226;2024-01-30T06:17:56;1;79
79467;SHT30;68933;49.726;9.226;2024-01-30T06:20:09;1;79
79467;SHT30;68933;49.726;9.226;2024-01-30T06:22:22;1;79
79467;SHT30;68933;49.726;9.226;2024-01-30T06:24:35;1;79
79467;SHT30;68933;49.726;9.226;2024-01-30T06:26:48;1;79
79467;SHT30;68933;49.726;9.226;2024-01-30T06:29:01;1;79
79467;SHT30;68933;49.726;9.226;2024-01-30T06:31:14;1;79
79467;SHT30;68933;49.726;9.226;2024-01-30T06:33:27;1;79
79467;SHT30;68933;49.726;9.226;2024-01-30T06:35:40;1;79
79467;SHT30;68933;49.726;9.226;2024-01-30T06:37:53;1;77
79467;SHT30;68933;49.726;9.226;2024-01-30T06:40:06;1;77
79467;SHT30;68933;49.726;9.226;2024-01-30T06:42:19;1;77
79467;SHT30;68933;49.726;9.226;2024-01-30T06:44:32;1;77
79467;SHT30;68933;49.726;9.226;2024-01-30T06:46:45;1;77
79467;SHT30;68933;49.726;9.226;2024-01-30T06:48:58;1;77
79467;SHT30;68933;49.726;9.226;2024-01-30T06:51:11;1;77
79467;SHT30;68933;49.726;9.226;2024-01-30T06:53:24;1;77
79467;SHT30;68933;49.726;9.226;2024-01-30T06:55:37;1;77
79467;SHT30;68933;49.726;9.226;2024-01-30T06:57:50;1;77
79467;SHT30;68933;49.726;9.226;2024-01-30T07:00:03;1;77
79467;SHT30;68933;49.726;9.226;2024-01-30T07:02:16;1;79
79467;SHT30;68933;49.726;9.226;2024-01-30T07:04:29;1;79
79467;SHT30;68933;49.726;9.226;2024-01-30T07:06:42;1;79
79467;SHT30;68933;49.726;9.226;2024-01-30T07:08:55;1;79
79467;SHT30;68933;49.726;9.226;2024-01-30T07:11:08;1;79
79467;SHT30;68933;49.726;9.226;2024-01-30T07:13:21;1.1;79
79467;SHT30;68933;49.726;9.226;2024-01-30T07:15:34;1.1;79
79467;SHT30;68933;49.726;9.226;2024-01-30T07:17:47;1.1;79
79467;SHT30;68933;49.726;9.226;2024-01-30T07:20:00;1.1;79
79467;SHT30;68933;49.726;9.226;2024-01-30T07:22:13;1.1;79
79467;SHT30;68933;49.726;9.226;2024-01-30T07:24:26;1.1;79
79467;SHT30;68933;49.726;9.226;2024-01-30T07:26:39;1.1;77
79467;SHT30;68933;49.726;9.226;2024-01-30T07:28:52;1.1;77
79467;SHT30;68933;49.726;9.226;2024-01-30T07:31:05;1.1;77
79467;SHT30;68933;49.726;9.226;2024-01-30T07:33:18;1.1;77
79467;SHT30;68933;49.726;9.226;2024-01-30T07:35:31;1.1;77
79467;SHT30;68933;49.726;9.226;2024-01-30T07:37:44;1.1;77
79467;SHT30;68933;49.726;9.226;2024-01-30T07:39:57;1.1;77
79467;SHT30;68933;49.726;9.226;2024-01-30T07:42:10;1.1;77
79467;SHT30;68933;49.726;9.226;2024-01-30T07:44:23;1.2;77
79467;SHT30;68933;49.726;9.226;2024-01-30T07:46:36;1.2;77
79467;SHT30;68933;49.726;9.226;2024-01-30T07:48:49;1.2;79
79467;SHT30;68933;49.726;9.226;2024-01-30T07:51:02;1.2;79
79467;SHT30;68933;49.726;9.226;2024-01-30T07:53:15;1.3;79
79467;SHT30;68933;49.726;9.226;2024-01-30T07:55:28;1.3;79
79467;SHT30;68933;49.726;9.226;2024-01-30T07:57:41;1.3;79
79467;SHT30;68933;49.726;9.226;2024-01-30T07:59:54;1.3;79
79467;SHT30;68933;49.726;9.226;2024-01-30T08:02:07;1.3;79
79467;SHT30;68933;49.726;9.226;2024-01-30T08:04:20;1.3;79
79467;SHT30;68933;49.726;9.226;2024-01-30T08:06:33;1.3;79
79467;SHT30;68933;49.726;9.226;2024-01-30T08:08:46;1.3;79
79467;SHT30;68933;49.726;9.226;2024-01-30T08:10:59;1.4;79
79467;SHT30;68933;49.726;9.226;2024-01-30T08:13:12;1.4;79
79467;SHT30;68933;49.726;9.226;2024-01-30T08:15:25;1.5;79
79467;SHT30;68933;49.726;9.226;2024-01-30T08:17:38;1.5;79
79467;SHT30;68933;49.726;9.226;2024-01-30T08:19:51;1.5;79
79467;SHT30;68933;49.726;9.226;2024-01-30T08:22:04;1.5;79
79467;SHT30;68933;49.726;9.226;2024-01-30T08:24:17;1.5;79
79467;SHT30;68933;49.726;9.226;2024-01-30T08:26:30;1.6;79
79467;SHT30;68933;49.726;9.226;2024-01-30T08:28:43;1.6;79
79467;SHT30;68933;49.726;9.226;2024-01-30T08:30:56;1.7;79
79467;SHT30;68933;49.726;9.226;2024-01-30T08:33:09;1.7;79
79467;SHT30;68933;49.726;9.226;2024-01-30T08:35:22;1.9;79
79467;SHT30;68933;49.726;9.226;2024-01-30T08:37:35;1.9;79
79467;SHT30;68933;49.726;9.226;2024-01-30T08:39:48;1.9;79
79467;SHT30;68933;49.726;9.226;2024-01-30T08:42:01;1.9;79
79467;SHT30;68933;49.726;9.226;2024-01-30T08:44:14;1.9;79
79467;SHT30;68933;49.726;9.226;2024-01-30T08:46:27;2.1;79
79467;SHT30;68933;49.726;9.226;2024-01-30T08:48:40;2.1;79
79467;SHT30;68933;49.726;9.226;2024-01-30T08:50:53;2.2;79
79467;SHT30;68933;49.726;9.226;2024-01-30T08:53:06;2.2;79
79467;SHT30;68933;49.726;9.226;2024-01-30T08:55:19;2.2;79
79467;SHT30;68933;49.726;9.226;2024-01-30T08:57:32;2.2;79
79467;SHT30;68933;49.726;9.226;2024-01-30T08:59:45;2.2;79
79467;SHT30;68933;49.726;9.226;2024-01-30T09:01:58;2.3;79
79467;SHT30;68933;49.726;9.226;2024-01-30T09:04:11;2.3;79
79467;SHT30;68933;49.726;9.226;2024-01-30T09:06:24;2.4;78
79467;SHT30;68933;49.726;9.226;2024-01-30T09:08:37;2.4;78
79467;SHT30;68933;49.726;9.226;2024-01-30T09:10:50;2.4;78
79467;SHT30;68933;49.726;9.226;2024-01-30T09:13:03;2.5;77
79467;SHT30;68933;49.726;9.226;2024-01-30T09:15:16;2.5;77
79467;SHT30;68933;49.726;9.226;2024-01-30T09:17:29;2.6;77
79467;SHT30;68933;49.726;9.226;2024-01-30T09:19:42;2.6;77
79467;SHT30;68933;49.726;9.226;2024-01-30T09:21:55;2.8;77
79467;SHT30;68933;49.726;9.226;2024-01-30T09:24:08;2.8;77
79467;SHT30;68933;49.726;9.226;2024-01-30T09:26:21;2.8;77
79467;SHT30;68933;49.726;9.226;2024-01-30T09:28:34;2.9;77
79467;SHT30;68933;49.726;9.226;2024-01-30T09:30:47;2.9;77
79467;SHT30;68933;49.726;9.226;2024-01-30T09:33:00;3;77
79467;SHT30;68933;49.726;9.226;2024-01-30T09:35:13;3;77
79467;SHT30;68933;49.726;9.226;2024-01-30T09:37:26;3.1;77
79467;SHT30;68933;49.726;9.226;2024-01-30T09:39:39;3.1;77
79467;SHT30;68933;49.726;9.226;2024-01-30T09:41:54;3.3;77
79467;SHT30;68933;49.726;9.226;2024-01-30T09:44:05;3.3;77
79467;SHT30;68933;49.726;9.226;2024-01-30T09:46:18;3.3;77
79467;SHT30;68933;49.726;9.226;2024-01-30T09:48:31;3.4;77
79467;SHT30;68933;49.726;9.226;2024-01-30T09:50:44;3.4;77
79467;SHT30;68933;49.726;9.226;2024-01-30T09:52:57;3.5;76
79467;SHT30;68933;49.726;9.226;2024-01-30T09:55:10;3.5;76
79467;SHT30;68933;49.726;9.226;2024-01-30T09:57:23;3.5;75
79467;SHT30;68933;49.726;9.226;2024-01-30T09:59:36;3.5;75
79467;SHT30;68933;49.726;9.226;2024-01-30T10:01:49;3.7;75
79467;SHT30;68933;49.726;9.226;2024-01-30T10:04:02;3.7;75
79467;SHT30;68933;49.726;9.226;2024-01-30T10:06:15;3.8;75
79467;SHT30;68933;49.726;9.226;2024-01-30T10:08:28;3.8;75
79467;SHT30;68933;49.726;9.226;2024-01-30T10:10:41;3.8;75
79467;SHT30;68933;49.726;9.226;2024-01-30T10:12:54;3.9;75
79467;SHT30;68933;49.726;9.226;2024-01-30T10:15:07;3.9;75
79467;SHT30;68933;49.726;9.226;2024-01-30T10:17:20;4.1;75
79467;SHT30;68933;49.726;9.226;2024-01-30T10:19:33;4.1;75
79467;SHT30;68933;49.726;9.226;2024-01-30T10:21:46;4.2;75
79467;SHT30;68933;49.726;9.226;2024-01-30T10:23:59;4.2;75
79467;SHT30;68933;49.726;9.226;2024-01-30T10:26:12;4.5;74
79467;SHT30;68933;49.726;9.226;2024-01-30T10:28:26;4.5;74
79467;SHT30;68933;49.726;9.226;2024-01-30T10:30:38;4.7;75
79467;SHT30;68933;49.726;9.226;2024-01-30T10:32:51;4.7;75
79467;SHT30;68933;49.726;9.226;2024-01-30T10:35:04;4.9;74
79467;SHT30;68933;49.726;9.226;2024-01-30T10:37:17;4.9;74
79467;SHT30;68933;49.726;9.226;2024-01-30T10:39:30;4.9;74
79467;SHT30;68933;49.726;9.226;2024-01-30T10:41:43;5.7;72
79467;SHT30;68933;49.726;9.226;2024-01-30T10:43:58;5.7;72
79467;SHT30;68933;49.726;9.226;2024-01-30T10:46:10;6;70
79467;SHT30;68933;49.726;9.226;2024-01-30T10:48:22;6;70
79467;SHT30;68933;49.726;9.226;2024-01-30T10:50:35;6;70
79467;SHT30;68933;49.726;9.226;2024-01-30T10:52:48;6;69
79467;SHT30;68933;49.726;9.226;2024-01-30T10:55:01;6;69
79467;SHT30;68933;49.726;9.226;2024-01-30T10:57:14;6.1;69
79467;SHT30;68933;49.726;9.226;2024-01-30T10:59:27;6.1;69
79467;SHT30;68933;49.726;9.226;2024-01-30T11:01:40;6.1;69
79467;SHT30;68933;49.726;9.226;2024-01-30T11:03:53;6.2;69
79467;SHT30;68933;49.726;9.226;2024-01-30T11:06:10;6.2;69
79467;SHT30;68933;49.726;9.226;2024-01-30T11:08:22;6.3;69
79467;SHT30;68933;49.726;9.226;2024-01-30T11:10:32;6.3;69
79467;SHT30;68933;49.726;9.226;2024-01-30T11:12:45;6.4;69
79467;SHT30;68933;49.726;9.226;2024-01-30T11:15:02;6.4;69
79467;SHT30;68933;49.726;9.226;2024-01-30T11:17:11;6.4;69
79467;SHT30;68933;49.726;9.226;2024-01-30T11:19:24;6.5;69
79467;SHT30;68933;49.726;9.226;2024-01-30T11:21:40;6.5;69
79467;SHT30;68933;49.726;9.226;2024-01-30T11:23:50;6.7;68
79467;SHT30;68933;49.726;9.226;2024-01-30T11:26:03;6.7;68
79467;SHT30;68933;49.726;9.226;2024-01-30T11:28:16;7;67
79467;SHT30;68933;49.726;9.226;2024-01-30T11:30:29;7;67
79467;SHT30;68933;49.726;9.226;2024-01-30T11:32:42;7;67
79467;SHT30;68933;49.726;9.226;2024-01-30T11:34:55;7;67
79467;SHT30;68933;49.726;9.226;2024-01-30T11:37:09;7;67
79467;SHT30;68933;49.726;9.226;2024-01-30T11:39:21;7.3;67
79467;SHT30;68933;49.726;9.226;2024-01-30T11:41:34;7.3;67
79467;SHT30;68933;49.726;9.226;2024-01-30T11:43:51;7.5;67
79467;SHT30;68933;49.726;9.226;2024-01-30T11:46:00;7.5;67
79467;SHT30;68933;49.726;9.226;2024-01-30T11:48:13;7.5;67
79467;SHT30;68933;49.726;9.226;2024-01-30T11:50:26;7.6;66
79467;SHT30;68933;49.726;9.226;2024-01-30T11:52:39;7.6;66
79467;SHT30;68933;49.726;9.226;2024-01-30T11:54:52;7.6;66
79467;SHT30;68933;49.726;9.226;2024-01-30T11:57:05;7.6;66
79467;SHT30;68933;49.726;9.226;2024-01-30T11:59:18;7.7;66
79467;SHT30;68933;49.726;9.226;2024-01-30T12:01:31;7.7;66
79467;SHT30;68933;49.726;9.226;2024-01-30T12:03:48;7.7;66
79467;SHT30;68933;49.726;9.226;2024-01-30T12:05:57;7.8;66
79467;SHT30;68933;49.726;9.226;2024-01-30T12:08:14;7.8;66
79467;SHT30;68933;49.726;9.226;2024-01-30T12:10:23;7.9;66
79467;SHT30;68933;49.726;9.226;2024-01-30T12:12:36;7.9;66
79467;SHT30;68933;49.726;9.226;2024-01-30T12:14:49;8.2;66
79467;SHT30;68933;49.726;9.226;2024-01-30T12:17:02;8.2;66
79467;SHT30;68933;49.726;9.226;2024-01-30T12:19:20;8.2;66
79467;SHT30;68933;49.726;9.226;2024-01-30T12:21:28;8.5;65
79467;SHT30;68933;49.726;9.226;2024-01-30T12:23:41;8.5;65
79467;SHT30;68933;49.726;9.226;2024-01-30T12:25:54;8.5;65
79467;SHT30;68933;49.726;9.226;2024-01-30T12:28:08;8.5;65
79467;SHT30;68933;49.726;9.226;2024-01-30T12:30:20;8.6;63
79467;SHT30;68933;49.726;9.226;2024-01-30T12:32:34;8.6;63
79467;SHT30;68933;49.726;9.226;2024-01-30T12:34:46;8.6;63
79467;SHT30;68933;49.726;9.226;2024-01-30T12:36:59;8.8;63
79467;SHT30;68933;49.726;9.226;2024-01-30T12:39:12;8.8;63
79467;SHT30;68933;49.726;9.226;2024-01-30T12:41:25;8.8;63
79467;SHT30;68933;49.726;9.226;2024-01-30T12:43:38;8.8;63
79467;SHT30;68933;49.726;9.226;2024-01-30T12:45:52;9.1;63
79467;SHT30;68933;49.726;9.226;2024-01-30T12:48:04;9.1;63
79467;SHT30;68933;49.726;9.226;2024-01-30T12:50:17;9.3;63
79467;SHT30;68933;49.726;9.226;2024-01-30T12:52:30;9.3;63
79467;SHT30;68933;49.726;9.226;2024-01-30T12:54:43;9.3;63
79467;SHT30;68933;49.726;9.226;2024-01-30T12:56:56;9.4;63
79467;SHT30;68933;49.726;9.226;2024-01-30T12:59:09;9.4;63
79467;SHT30;68933;49.726;9.226;2024-01-30T13:01:22;9.5;62
79467;SHT30;68933;49.726;9.226;2024-01-30T13:03:35;9.5;62
79467;SHT30;68933;49.726;9.226;2024-01-30T13:05:48;9.5;62
79467;SHT30;68933;49.726;9.226;2024-01-30T13:08:01;9.5;62
79467;SHT30;68933;49.726;9.226;2024-01-30T13:10:14;9.7;63
79467;SHT30;68933;49.726;9.226;2024-01-30T13:12:27;9.7;63
79467;SHT30;68933;49.726;9.226;2024-01-30T13:14:40;10.1;64
79467;SHT30;68933;49.726;9.226;2024-01-30T13:16:53;10.1;64
79467;SHT30;68933;49.726;9.226;2024-01-30T13:19:06;10.4;63
79467;SHT30;68933;49.726;9.226;2024-01-30T13:21:19;10.4;63
79467;SHT30;68933;49.726;9.226;2024-01-30T13:23:32;10.4;63
79467;SHT30;68933;49.726;9.226;2024-01-30T13:25:45;10.4;59
79467;SHT30;68933;49.726;9.226;2024-01-30T13:27:58;10.4;59
79467;SHT30;68933;49.726;9.226;2024-01-30T13:30:11;10.4;59
79467;SHT30;68933;49.726;9.226;2024-01-30T13:32:24;10.4;59
79467;SHT30;68933;49.726;9.226;2024-01-30T13:34:37;10.4;59
79467;SHT30;68933;49.726;9.226;2024-01-30T13:36:50;10.4;59
79467;SHT30;68933;49.726;9.226;2024-01-30T13:39:03;10.5;59
79467;SHT30;68933;49.726;9.226;2024-01-30T13:41:16;10.5;59
79467;SHT30;68933;49.726;9.226;2024-01-30T13:43:29;10.5;59
79467;SHT30;68933;49.726;9.226;2024-01-30T13:45:42;10.5;59
79467;SHT30;68933;49.726;9.226;2024-01-30T13:47:55;10.6;59
79467;SHT30;68933;49.726;9.226;2024-01-30T13:50:08;10.6;59
79467;SHT30;68933;49.726;9.226;2024-01-30T13:52:21;10.6;59
79467;SHT30;68933;49.726;9.226;2024-01-30T13:54:34;10.7;59
79467;SHT30;68933;49.726;9.226;2024-01-30T13:56:47;10.7;59
79467;SHT30;68933;49.726;9.226;2024-01-30T13:59:00;10.8;58
79467;SHT30;68933;49.726;9.226;2024-01-30T14:01:13;10.8;58
79467;SHT30;68933;49.726;9.226;2024-01-30T14:03:26;10.8;58
79467;SHT30;68933;49.726;9.226;2024-01-30T14:05:39;10.7;58
79467;SHT30;68933;49.726;9.226;2024-01-30T14:07:52;10.7;58
79467;SHT30;68933;49.726;9.226;2024-01-30T14:10:05;10.7;59
79467;SHT30;68933;49.726;9.226;2024-01-30T14:12:18;10.7;59
79467;SHT30;68933;49.726;9.226;2024-01-30T14:14:31;10.7;59
79467;SHT30;68933;49.726;9.226;2024-01-30T14:16:44;10.7;59
79467;SHT30;68933;49.726;9.226;2024-01-30T14:18:57;10.7;59
79467;SHT30;68933;49.726;9.226;2024-01-30T14:21:10;10.7;59
79467;SHT30;68933;49.726;9.226;2024-01-30T14:23:23;10.7;59
79467;SHT30;68933;49.726;9.226;2024-01-30T14:25:36;10.8;58
79467;SHT30;68933;49.726;9.226;2024-01-30T14:27:49;10.8;58
79467;SHT30;68933;49.726;9.226;2024-01-30T14:30:02;10.8;58
79467;SHT30;68933;49.726;9.226;2024-01-30T14:32:15;10.7;59
79467;SHT30;68933;49.726;9.226;2024-01-30T14:34:28;10.7;59
79467;SHT30;68933;49.726;9.226;2024-01-30T14:36:41;10.6;59
79467;SHT30;68933;49.726;9.226;2024-01-30T14:38:54;10.6;59
79467;SHT30;68933;49.726;9.226;2024-01-30T14:41:07;10.6;59
79467;SHT30;68933;49.726;9.226;2024-01-30T14:43:20;10.6;59
79467;SHT30;68933;49.726;9.226;2024-01-30T14:45:33;10.6;59
79467;SHT30;68933;49.726;9.226;2024-01-30T14:47:46;10.4;59
79467;SHT30;68933;49.726;9.226;2024-01-30T14:49:59;10.4;59
79467;SHT30;68933;49.726;9.226;2024-01-30T14:52:12;10.3;59
79467;SHT30;68933;49.726;9.226;2024-01-30T14:54:25;10.3;59
79467;SHT30;68933;49.726;9.226;2024-01-30T14:56:38;10.3;59
79467;SHT30;68933;49.726;9.226;2024-01-30T14:58:51;10.2;59
79467;SHT30;68933;49.726;9.226;2024-01-30T15:01:04;10.2;59
79467;SHT30;68933;49.726;9.226;2024-01-30T15:03:17;10.1;60
79467;SHT30;68933;49.726;9.226;2024-01-30T15:05:30;10.1;60
79467;SHT30;68933;49.726;9.226;2024-01-30T15:07:43;10.1;60
79467;SHT30;68933;49.726;9.226;2024-01-30T15:09:56;10.1;60
79467;SHT30;68933;49.726;9.226;2024-01-30T15:12:09;10.1;60
79467;SHT30;68933;49.726;9.226;2024-01-30T15:14:22;10.1;60